METAR Data
IDs: Format: Raw Decoded Include TAF

Data at: 1936 UTC 23 Sep 2018

METAR for:PASD (Sand Point Arpt, AK, US)
Text:PASD 231856Z 00000KT 10SM -RA SCT014 BKN038 OVC065 09/07 A2976 RMK AO2 SLP081 T00890072 PNO $
Temperature: 8.9°C ( 48°F)
Dewpoint: 7.2°C ( 45°F) [RH = 89%]
Pressure (altimeter):29.76 inches Hg (1007.9 mb) [Sea level pressure: 1008.1 mb]
Winds:calm
Visibility:10 or more sm (16+ km)
Ceiling:3800 feet AGL
Clouds: scattered clouds at 1400 feet AGL, broken clouds at 3800 feet AGL, overcast cloud deck at 6500 feet AGL
Weather:-RA (light rain)
QC Flag:SOME DATA ABOVE MAY BE INACCURATE!!!"$" is an indication the sensor requires maintenance.
Text:PASD 231821Z 00000KT 6SM -RA BR BKN014 BKN042 OVC070 09/07 A2978 RMK AO2 PNO $
Temperature: 9.0°C ( 48°F)
Dewpoint: 7.0°C ( 45°F) [RH = 87%]
Pressure (altimeter):29.78 inches Hg (1008.5 mb)
Winds:calm
Visibility: 6 sm ( 10 km)
Ceiling:1400 feet AGL
Clouds: broken clouds at 1400 feet AGL, broken clouds at 4200 feet AGL, overcast cloud deck at 7000 feet AGL
Weather:-RA BR (light rain, mist)
QC Flag:SOME DATA ABOVE MAY BE INACCURATE!!!"$" is an indication the sensor requires maintenance.
Text:PASD 231756Z 00000KT 10SM -RA SCT014 BKN045 OVC070 09/08 A2979 RMK AO2 RAB33 SLP089 6//// T00890078 10094 20083 56023 PNO $
Temperature: 8.9°C ( 48°F)
Dewpoint: 7.8°C ( 46°F) [RH = 93%]
Pressure (altimeter):29.79 inches Hg (1008.9 mb) [Sea level pressure: 1008.9 mb]
Winds:calm
Visibility:10 or more sm (16+ km)
Ceiling:4500 feet AGL
Clouds: scattered clouds at 1400 feet AGL, broken clouds at 4500 feet AGL, overcast cloud deck at 7000 feet AGL
Weather:-RA (light rain)
QC Flag:SOME DATA ABOVE MAY BE INACCURATE!!!"$" is an indication the sensor requires maintenance.
Text:PASD 231656Z 07004KT 10SM SCT014 BKN031 OVC100 09/07 A2980 RMK AO2 RAE12 SLP095 T00940067 PNO $
Temperature: 9.4°C ( 49°F)
Dewpoint: 6.7°C ( 44°F) [RH = 83%]
Pressure (altimeter):29.80 inches Hg (1009.2 mb) [Sea level pressure: 1009.5 mb]
Winds:from the ENE (70 degrees) at 5 MPH (4 knots; 2.1 m/s)
Visibility:10 or more sm (16+ km)
Ceiling:3100 feet AGL
Clouds: scattered clouds at 1400 feet AGL, broken clouds at 3100 feet AGL, overcast cloud deck at 10000 feet AGL
QC Flag:SOME DATA ABOVE MAY BE INACCURATE!!!"$" is an indication the sensor requires maintenance.
Text:PASD 231556Z 00000KT 10SM -RA OVC085 09/08 A2982 RMK AO2 RAB51 SLP102 T00890078 PNO $
Temperature: 8.9°C ( 48°F)
Dewpoint: 7.8°C ( 46°F) [RH = 93%]
Pressure (altimeter):29.82 inches Hg (1009.9 mb) [Sea level pressure: 1010.2 mb]
Winds:calm
Visibility:10 or more sm (16+ km)
Ceiling:8500 feet AGL
Clouds: overcast cloud deck at 8500 feet AGL
Weather:-RA (light rain)
QC Flag:SOME DATA ABOVE MAY BE INACCURATE!!!"$" is an indication the sensor requires maintenance.
Text:PASD 231456Z 12004KT 10SM FEW018 SCT032 SCT070 09/08 A2985 RMK AO2 SLP112 6//// T00940078 58009 PNO $
Temperature: 9.4°C ( 49°F)
Dewpoint: 7.8°C ( 46°F) [RH = 90%]
Pressure (altimeter):29.85 inches Hg (1010.9 mb) [Sea level pressure: 1011.2 mb]
Winds:from the ESE (120 degrees) at 5 MPH (4 knots; 2.1 m/s)
Visibility:10 or more sm (16+ km)
Ceiling:at least 12,000 feet AGL
Clouds: few clouds at 1800 feet AGL, scattered clouds at 3200 feet AGL, scattered clouds at 7000 feet AGL
QC Flag:SOME DATA ABOVE MAY BE INACCURATE!!!"$" is an indication the sensor requires maintenance.

TAF for:PASD (Sand Point Arpt, AK, US) issued at 1723 UTC 23 Sep 2018
Text:PASD 231723Z 2318/2418 VRB06KT P6SM -RA SCT014 BKN035
Forecast period:1800 to 2100 UTC 23 September 2018
Forecast type:FROM: standard forecast or significant change
Winds:variable direction winds at 7 MPH (6 knots; 3.1 m/s)
Visibility:6 or more sm (10+ km)
Ceiling:3500 feet AGL
Clouds: scattered clouds at 1400 feet AGL, broken clouds at 3500 feet AGL
Weather:-RA (light rain)
Text:FM232100 VRB06KT 4SM -RA BR FEW007 SCT015 OVC025
Forecast period:2100 UTC 23 September 2018 to 0100 UTC 24 September 2018
Forecast type:FROM: standard forecast or significant change
Winds:variable direction winds at 7 MPH (6 knots; 3.1 m/s)
Visibility: 4 sm ( 6 km)
Ceiling:2500 feet AGL
Clouds: few clouds at 700 feet AGL, scattered clouds at 1500 feet AGL, overcast cloud deck at 2500 feet AGL
Weather:-RA BR (light rain, mist)
Text:FM240100 34012G20KT 4SM -SHRA BR FEW007 SCT015 OVC025
Forecast period:0100 to 0700 UTC 24 September 2018
Forecast type:FROM: standard forecast or significant change
Winds:from the NNW (340 degrees) at 14 MPH (12 knots; 6.2 m/s) gusting to 23 MPH (20 knots; 10.3 m/s)
Visibility: 4 sm ( 6 km)
Ceiling:2500 feet AGL
Clouds: few clouds at 700 feet AGL, scattered clouds at 1500 feet AGL, overcast cloud deck at 2500 feet AGL
Weather:-SHRA BR (light rain showers, mist)
Text:FM240700 28014KT P6SM VCSH SCT025 BKN050 AMD LTD TO CLD VIS AND WIND
Forecast period:0700 to 1800 UTC 24 September 2018
Forecast type:FROM: standard forecast or significant change
Winds:from the W (280 degrees) at 16 MPH (14 knots; 7.2 m/s)
Visibility:6 or more sm (10+ km)
Ceiling:5000 feet AGL
Clouds: scattered clouds at 2500 feet AGL, broken clouds at 5000 feet AGL
Weather:VCSH (showers in vicinity)